Time;durP1;ratioP1;P1;durP2;ratioP2;P2;SDS_P1;SDS_P2;PMS_P1;PMS_P2;Temp;Humidity;BMP_temperature;BMP_pressure;BME280_temperature;BME280_humidity;BME280_pressure;Samples;Min_cycle;Max_cycle;Signal;HPM_P1;HPM_P2
2023/07/14 00:01:29;;;;;;;2.63;1.10;;;19.10;84.00;;;;;;5010686;28;20454;-76
2023/07/14 00:03:56;;;;;;;8.73;1.95;;;19.10;84.20;;;;;;5004645;28;20125;-76
2023/07/14 00:06:21;;;;;;;8.23;1.58;;;19.10;84.50;;;;;;5006362;28;20036;-76
2023/07/14 00:08:47;;;;;;;4.55;1.42;;;19.00;84.50;;;;;;5012313;28;20022;-76
2023/07/14 00:11:21;;;;;;;2.80;1.50;;;19.00;84.60;;;;;;5016301;28;20022;-76
2023/07/14 00:13:48;;;;;;;2.22;1.33;;;19.00;85.00;;;;;;5011858;28;20045;-76
2023/07/14 00:16:19;;;;;;;4.40;1.45;;;18.90;85.10;;;;;;4997711;28;20034;-77
2023/07/14 00:18:46;;;;;;;2.80;1.27;;;18.90;85.40;;;;;;4993807;28;20060;-76
2023/07/14 00:21:22;;;;;;;1.85;1.40;;;18.80;85.60;;;;;;4999641;28;20466;-76
2023/07/14 00:23:48;;;;;;;9.90;2.38;;;18.80;85.90;;;;;;4988551;28;20018;-76
2023/07/14 00:26:16;;;;;;;2.10;1.30;;;18.80;86.10;;;;;;4993014;28;20465;-76
2023/07/14 00:28:42;;;;;;;4.43;1.48;;;18.70;86.30;;;;;;4996146;28;20112;-77
2023/07/14 00:31:14;;;;;;;4.93;1.13;;;18.70;87.20;;;;;;5016338;28;20034;-77
2023/07/14 00:33:41;;;;;;;4.63;1.63;;;18.60;86.90;;;;;;5015573;28;20029;-77
2023/07/14 00:36:07;;;;;;;3.65;1.38;;;18.60;87.10;;;;;;5000127;28;20038;-77
2023/07/14 00:38:34;;;;;;;3.58;1.45;;;18.60;87.20;;;;;;5014702;28;20034;-77
2023/07/14 00:41:00;;;;;;;4.28;1.98;;;18.50;87.00;;;;;;5024168;28;20101;-78
2023/07/14 00:43:26;;;;;;;5.47;1.80;;;18.50;87.10;;;;;;5015000;28;20108;-76
2023/07/14 00:45:54;;;;;;;3.53;1.60;;;18.50;87.30;;;;;;4992818;28;20116;-76
2023/07/14 00:48:26;;;;;;;4.95;1.38;;;18.40;87.30;;;;;;5009903;28;20484;-77
2023/07/14 00:51:06;;;;;;;4.50;1.42;;;18.50;87.40;;;;;;5009810;28;20030;-76
2023/07/14 00:53:35;;;;;;;2.03;1.23;;;18.40;87.50;;;;;;4992205;28;20555;-77
2023/07/14 00:56:10;;;;;;;4.70;1.70;;;18.40;87.70;;;;;;5012973;28;20025;-75
2023/07/14 01:01:21;;;;;;;4.93;1.40;;;18.30;88.20;;;;;;5016151;28;20057;-75
2023/07/14 01:03:55;;;;;;;4.47;1.40;;;18.30;88.40;;;;;;4994159;28;20108;-75
2023/07/14 01:06:26;;;;;;;;;;;18.20;88.60;;;;;;5016754;28;20487;-77
2023/07/14 01:09:01;;;;;;;2.63;1.40;;;18.20;88.80;;;;;;5020879;28;19909;-77
2023/07/14 01:11:32;;;;;;;5.25;1.60;;;18.20;88.60;;;;;;5020997;28;20036;-76
2023/07/14 01:14:03;;;;;;;2.78;1.30;;;18.20;88.70;;;;;;5017345;28;20541;-76
2023/07/14 01:16:31;;;;;;;5.20;1.67;;;18.10;88.70;;;;;;5023573;28;20067;-76
2023/07/14 01:18:58;;;;;;;5.75;1.48;;;18.10;88.90;;;;;;5021593;28;20026;-76
2023/07/14 01:21:24;;;;;;;2.35;1.35;;;18.10;88.80;;;;;;5022530;28;20029;-76
2023/07/14 01:24:10;;;;;;;4.57;1.63;;;18.10;88.80;;;;;;4999869;28;20017;-75
2023/07/14 01:26:57;;;;;;;4.22;1.23;;;18.10;89.00;;;;;;5014709;28;20057;-75
2023/07/14 01:29:23;;;;;;;2.92;1.58;;;18.10;89.20;;;;;;5016758;28;20144;-75
2023/07/14 01:31:49;;;;;;;3.90;1.45;;;18.10;89.20;;;;;;5004740;28;20116;-75
2023/07/14 01:34:16;;;;;;;3.60;1.42;;;18.00;89.20;;;;;;5000255;28;20120;-75
2023/07/14 01:36:44;;;;;;;3.25;1.60;;;18.00;89.50;;;;;;5002117;28;20041;-75
2023/07/14 01:39:10;;;;;;;4.18;1.83;;;18.00;89.30;;;;;;5020630;28;20065;-75
2023/07/14 01:41:36;;;;;;;3.83;1.65;;;17.90;89.20;;;;;;5021818;28;20025;-75
2023/07/14 01:44:04;;;;;;;4.97;1.30;;;17.90;89.30;;;;;;4996131;28;20032;-75
2023/07/14 01:46:30;;;;;;;3.70;1.50;;;17.90;89.50;;;;;;5021001;28;20068;-75
2023/07/14 01:48:59;;;;;;;7.18;1.42;;;17.90;89.50;;;;;;4996830;28;20029;-74
2023/07/14 01:51:27;;;;;;;1.95;1.27;;;17.90;89.50;;;;;;5024057;28;20140;-75
2023/07/14 01:54:21;;;;;;;3.75;1.70;;;17.90;89.60;;;;;;5026475;28;20026;-75
2023/07/14 01:56:48;;;;;;;3.47;1.52;;;17.90;89.70;;;;;;5024927;28;20037;-75
2023/07/14 01:59:21;;;;;;;6.10;1.67;;;17.90;89.60;;;;;;5004106;28;20436;-75
2023/07/14 02:01:50;;;;;;;2.15;1.60;;;17.90;90.00;;;;;;5002117;28;20041;-75
2023/07/14 02:04:25;;;;;;;4.38;1.60;;;17.90;90.00;;;;;;5003062;28;20484;-75
2023/07/14 02:06:51;;;;;;;4.03;1.65;;;17.80;90.10;;;;;;5025670;28;20021;-75
2023/07/14 02:09:23;;;;;;;4.80;1.40;;;17.80;90.10;;;;;;5006209;28;20038;-75
2023/07/14 02:11:53;;;;;;;7.20;1.70;;;17.80;90.20;;;;;;5024503;28;20017;-75
2023/07/14 02:14:21;;;;;;;3.85;1.65;;;17.70;90.30;;;;;;5024794;28;20033;-75
2023/07/14 02:16:48;;;;;;;2.88;1.35;;;17.70;90.40;;;;;;5024315;28;20026;-75
2023/07/14 02:19:22;;;;;;;3.05;1.45;;;17.70;90.50;;;;;;5023461;28;20025;-75
2023/07/14 02:21:49;;;;;;;5.80;1.60;;;17.60;90.60;;;;;;5025026;28;20391;-75
2023/07/14 02:24:20;;;;;;;2.88;1.40;;;17.60;90.60;;;;;;5020208;28;20052;-75
2023/07/14 02:26:51;;;;;;;4.03;1.42;;;17.60;90.70;;;;;;5024213;28;20029;-74
2023/07/14 02:29:16;;;;;;;2.50;1.65;;;17.60;90.80;;;;;;5026125;28;20045;-74
2023/07/14 02:32:00;;;;;;;3.45;1.52;;;17.50;90.80;;;;;;5006115;28;20918;-74
2023/07/14 02:34:31;;;;;;;3.15;1.60;;;17.40;90.90;;;;;;5024038;28;20036;-74
2023/07/14 02:37:02;;;;;;;5.07;2.13;;;17.50;91.00;;;;;;5024649;28;20033;-74
2023/07/14 02:39:36;;;;;;;4.75;2.00;;;17.40;91.40;;;;;;5020991;28;20037;-74
2023/07/14 02:42:03;;;;;;;6.88;2.53;;;17.40;91.70;;;;;;5023381;28;20040;-75
2023/07/14 02:44:36;;;;;;;4.72;2.60;;;17.40;92.00;;;;;;5023564;28;20053;-75
2023/07/14 02:47:10;;;;;;;6.70;2.58;;;17.30;92.00;;;;;;5024317;28;20330;-75
2023/07/14 02:49:36;;;;;;;5.40;2.20;;;17.30;92.40;;;;;;5019441;28;20059;-74
2023/07/14 02:52:02;;;;;;;5.80;2.08;;;17.30;92.50;;;;;;5003653;28;20492;-75
2023/07/14 02:54:28;;;;;;;4.93;1.65;;;17.30;92.60;;;;;;5021019;28;20029;-75
2023/07/14 02:56:54;;;;;;;3.28;1.67;;;17.20;92.60;;;;;;5024549;28;20392;-75
2023/07/14 02:59:20;;;;;;;5.60;2.13;;;17.20;92.70;;;;;;5002781;28;20028;-75
2023/07/14 03:01:45;;;;;;;3.83;1.98;;;17.10;92.90;;;;;;5024167;28;20033;-75
2023/07/14 03:04:11;;;;;;;7.03;2.15;;;17.00;93.00;;;;;;5025706;28;20391;-75
2023/07/14 03:06:37;;;;;;;3.08;2.30;;;17.00;93.10;;;;;;5025454;28;20021;-75
2023/07/14 03:09:02;;;;;;;4.20;2.58;;;17.00;93.30;;;;;;5020414;28;20168;-75
2023/07/14 03:11:28;;;;;;;7.30;2.80;;;17.00;93.40;;;;;;5023466;28;20029;-75
2023/07/14 03:13:54;;;;;;;3.88;2.35;;;16.90;93.30;;;;;;5022092;28;20037;-75
2023/07/14 03:16:20;;;;;;;9.40;3.45;;;16.90;93.50;;;;;;5023075;28;20025;-75
2023/07/14 03:18:45;;;;;;;4.55;2.65;;;16.80;93.60;;;;;;5025139;28;20374;-75
2023/07/14 03:21:12;;;;;;;7.55;2.30;;;16.70;93.70;;;;;;5023344;28;20532;-75
2023/07/14 03:23:38;;;;;;;5.13;2.50;;;16.80;93.80;;;;;;5020936;28;20389;-75
2023/07/14 03:26:07;;;;;;;9.35;2.83;;;16.70;93.80;;;;;;5024086;28;20025;-75
2023/07/14 03:28:34;;;;;;;3.15;2.13;;;16.70;93.80;;;;;;5025538;28;20412;-75
2023/07/14 03:31:03;;;;;;;4.95;2.40;;;16.70;94.00;;;;;;5005131;28;20443;-75
2023/07/14 03:33:30;;;;;;;8.45;2.58;;;16.60;94.00;;;;;;5026682;28;20021;-75
2023/07/14 03:36:04;;;;;;;7.50;1.92;;;16.60;94.10;;;;;;5021333;28;20369;-75
2023/07/14 03:38:30;;;;;;;4.88;2.03;;;16.60;94.30;;;;;;5023045;28;20395;-75
2023/07/14 03:40:55;;;;;;;4.03;1.95;;;16.60;94.40;;;;;;5025738;28;20030;-75
2023/07/14 03:43:21;;;;;;;3.72;2.00;;;16.60;94.60;;;;;;5023546;28;20026;-74
2023/07/14 03:45:46;;;;;;;6.22;2.97;;;16.50;94.80;;;;;;5022939;28;20039;-75
2023/07/14 03:48:12;;;;;;;4.15;2.00;;;16.50;94.90;;;;;;5020852;28;20025;-75
2023/07/14 03:50:38;;;;;;;4.03;1.95;;;16.50;94.80;;;;;;5025590;28;20106;-74
2023/07/14 03:53:03;;;;;;;3.38;1.92;;;16.50;94.60;;;;;;5023918;28;20568;-75
2023/07/14 03:55:31;;;;;;;6.72;1.63;;;16.50;94.40;;;;;;5004858;28;20025;-75
2023/07/14 03:57:57;;;;;;;3.33;1.48;;;16.50;94.30;;;;;;5002802;28;20029;-75
2023/07/14 04:00:23;;;;;;;1.83;1.30;;;16.50;94.50;;;;;;5023764;28;20040;-75
2023/07/14 04:02:48;;;;;;;2.85;1.70;;;16.50;94.10;;;;;;5004081;28;20468;-76
2023/07/14 04:05:14;;;;;;;4.18;1.55;;;16.50;94.00;;;;;;5004374;28;20053;-75
2023/07/14 04:07:42;;;;;;;6.63;1.77;;;16.50;94.00;;;;;;5022172;28;20080;-75
2023/07/14 04:10:09;;;;;;;5.53;2.00;;;16.50;93.90;;;;;;5006905;28;20029;-75
2023/07/14 04:12:34;;;;;;;4.50;1.83;;;16.50;93.90;;;;;;5006406;28;20472;-75
2023/07/14 04:15:00;;;;;;;4.15;1.83;;;16.50;93.90;;;;;;5024703;28;20056;-75
2023/07/14 04:17:27;;;;;;;4.03;1.90;;;16.60;93.90;;;;;;5004545;28;20117;-75
2023/07/14 04:19:53;;;;;;;5.28;2.05;;;16.50;93.80;;;;;;5021608;28;20033;-75
2023/07/14 04:22:19;;;;;;;5.43;2.22;;;16.60;94.00;;;;;;5019152;28;20534;-75
2023/07/14 04:24:45;;;;;;;5.63;2.35;;;16.60;94.30;;;;;;5026139;28;20184;-75
2023/07/14 04:27:12;;;;;;;5.75;2.50;;;16.70;94.70;;;;;;5020260;28;20083;-75
2023/07/14 04:29:39;;;;;;;8.90;2.72;;;16.60;94.80;;;;;;5020608;28;20029;-75
2023/07/14 04:32:05;;;;;;;5.82;2.58;;;16.60;95.00;;;;;;5020922;28;20084;-75
2023/07/14 04:34:31;;;;;;;5.63;2.83;;;16.60;95.20;;;;;;4997698;28;20040;-75
2023/07/14 04:36:56;;;;;;;7.70;2.78;;;16.60;95.30;;;;;;5019483;28;20029;-76
2023/07/14 04:39:25;;;;;;;8.40;2.70;;;16.60;95.40;;;;;;5024015;28;20053;-76
2023/07/14 04:41:51;;;;;;;6.57;2.88;;;16.60;95.30;;;;;;5021414;28;20527;-76
2023/07/14 04:44:16;;;;;;;4.43;2.65;;;16.70;95.30;;;;;;5022434;28;20030;-75
2023/07/14 04:46:44;;;;;;;4.45;2.83;;;16.70;95.20;;;;;;5021553;28;20026;-75
2023/07/14 04:49:11;;;;;;;4.57;2.83;;;16.70;95.30;;;;;;5024067;28;20057;-75
2023/07/14 04:51:37;;;;;;;7.28;3.22;;;16.70;95.30;;;;;;5003148;28;20030;-75
2023/07/14 04:54:05;;;;;;;7.13;3.33;;;16.80;95.40;;;;;;5000024;28;20025;-76
2023/07/14 04:56:32;;;;;;;4.22;2.60;;;16.90;95.50;;;;;;5023104;28;20029;-76
2023/07/14 04:58:58;;;;;;;6.10;2.88;;;16.90;95.50;;;;;;5014875;28;20033;-76
2023/07/14 05:01:23;;;;;;;6.72;2.30;;;17.00;95.50;;;;;;5023357;28;20352;-75
2023/07/14 05:03:49;;;;;;;7.25;3.05;;;17.00;95.40;;;;;;5024706;28;20017;-76
2023/07/14 05:06:15;;;;;;;3.97;2.53;;;17.00;95.40;;;;;;5023216;28;20036;-75
2023/07/14 05:08:40;;;;;;;7.65;3.35;;;17.10;95.40;;;;;;5017933;28;20029;-75
2023/07/14 05:11:06;;;;;;;4.60;2.45;;;17.10;95.30;;;;;;5013829;28;20040;-74
2023/07/14 05:13:33;;;;;;;5.28;3.05;;;17.10;95.20;;;;;;5014160;28;20080;-75
2023/07/14 05:15:59;;;;;;;6.43;3.15;;;17.20;95.20;;;;;;5000202;28;20033;-75
2023/07/14 05:18:25;;;;;;;8.43;2.72;;;17.20;95.20;;;;;;5012552;28;20022;-75
2023/07/14 05:20:52;;;;;;;6.03;2.53;;;17.20;95.20;;;;;;5010692;28;20049;-74
2023/07/14 05:23:18;;;;;;;4.82;2.10;;;17.20;95.10;;;;;;5013999;28;20392;-76
2023/07/14 05:25:45;;;;;;;10.15;2.97;;;17.30;95.00;;;;;;4999586;28;20037;-69
2023/07/14 05:28:10;;;;;;;8.90;2.92;;;17.40;95.00;;;;;;5015140;28;20112;-70
2023/07/14 05:30:36;;;;;;;6.53;2.90;;;17.60;94.80;;;;;;5019283;28;20152;-70
2023/07/14 05:33:02;;;;;;;7.85;3.03;;;17.70;94.50;;;;;;5021902;28;20030;-69
2023/07/14 05:35:28;;;;;;;10.23;3.15;;;17.80;94.40;;;;;;5018500;28;20140;-69
2023/07/14 05:37:56;;;;;;;9.25;3.28;;;17.90;94.40;;;;;;5020465;28;20080;-70
2023/07/14 05:40:22;;;;;;;7.20;3.63;;;17.90;94.20;;;;;;5021109;28;20026;-69
2023/07/14 05:42:48;;;;;;;6.80;3.13;;;18.00;94.20;;;;;;5014822;28;20036;-75
2023/07/14 05:45:15;;;;;;;9.40;4.38;;;18.10;94.20;;;;;;5017415;28;20571;-74
2023/07/14 05:47:47;;;;;;;14.32;3.40;;;18.10;94.20;;;;;;5020163;28;20056;-74
2023/07/14 05:50:14;;;;;;;4.93;3.10;;;18.00;94.20;;;;;;5020773;28;20125;-74
2023/07/14 05:52:40;;;;;;;8.30;3.05;;;18.10;94.40;;;;;;5019522;28;20045;-74
2023/07/14 05:55:06;;;;;;;8.23;2.97;;;18.20;94.40;;;;;;5003306;28;20022;-74
2023/07/14 05:57:32;;;;;;;8.35;3.13;;;18.30;94.20;;;;;;5020059;28;20117;-73
2023/07/14 05:59:58;;;;;;;6.45;3.38;;;18.40;94.10;;;;;;5018601;28;20468;-74
2023/07/14 06:02:24;;;;;;;4.70;2.78;;;18.50;94.00;;;;;;5021451;28;20029;-73
2023/07/14 06:04:50;;;;;;;6.40;3.00;;;18.60;93.90;;;;;;5015919;28;20026;-75
2023/07/14 06:07:15;;;;;;;9.15;3.28;;;18.70;93.60;;;;;;5018998;28;20104;-74
2023/07/14 06:09:42;;;;;;;6.32;2.83;;;18.70;93.60;;;;;;5020596;28;20416;-75
2023/07/14 06:12:10;;;;;;;7.50;3.03;;;18.80;93.20;;;;;;5017056;28;20040;-73
2023/07/14 06:14:37;;;;;;;9.57;3.10;;;18.90;93.20;;;;;;5019057;28;20049;-74
2023/07/14 06:17:05;;;;;;;5.22;2.67;;;19.00;93.10;;;;;;5018961;28;20034;-74
2023/07/14 06:19:31;;;;;;;7.82;2.80;;;19.00;93.00;;;;;;4997618;28;20145;-72
2023/07/14 06:21:57;;;;;;;8.10;3.40;;;19.10;92.90;;;;;;5017470;28;20562;-74
2023/07/14 06:24:24;;;;;;;9.93;3.63;;;19.10;92.70;;;;;;5018562;28;20476;-73
2023/07/14 06:26:50;;;;;;;11.65;3.85;;;19.10;92.60;;;;;;5018765;28;20053;-73
2023/07/14 06:29:15;;;;;;;10.38;3.10;;;19.10;92.80;;;;;;5018339;28;20033;-74
2023/07/14 06:31:41;;;;;;;6.35;2.75;;;19.10;92.90;;;;;;5000012;28;20381;-73
2023/07/14 06:34:07;;;;;;;8.43;3.13;;;19.10;92.90;;;;;;5018084;28;20045;-74
2023/07/14 06:36:33;;;;;;;7.97;3.45;;;19.30;92.90;;;;;;5018790;28;20037;-73
2023/07/14 06:38:59;;;;;;;8.40;3.22;;;19.30;92.80;;;;;;5014102;28;20061;-74
2023/07/14 06:41:24;;;;;;;13.40;3.95;;;19.40;92.80;;;;;;5017452;28;20029;-74
2023/07/14 06:43:50;;;;;;;7.93;3.40;;;19.60;92.70;;;;;;5004151;28;20361;-74
2023/07/14 06:46:17;;;;;;;8.25;3.90;;;19.70;92.50;;;;;;4994240;28;20592;-74
2023/07/14 06:48:45;;;;;;;8.50;3.50;;;19.70;92.30;;;;;;5015829;28;20060;-74
2023/07/14 06:51:12;;;;;;;6.25;3.70;;;19.80;92.00;;;;;;5019288;28;20025;-74
2023/07/14 06:53:38;;;;;;;9.60;3.50;;;19.80;92.00;;;;;;5016582;28;20108;-74
2023/07/14 06:56:04;;;;;;;16.63;3.65;;;19.80;91.80;;;;;;5019617;28;20035;-73
2023/07/14 06:58:29;;;;;;;6.70;3.13;;;19.80;91.80;;;;;;5017833;28;20491;-74
2023/07/14 07:00:55;;;;;;;7.50;3.25;;;19.90;91.80;;;;;;5023571;23;20066;-72
2023/07/14 07:03:21;;;;;;;6.35;3.00;;;20.00;91.70;;;;;;4999781;28;20053;-72
2023/07/14 07:05:46;;;;;;;8.20;3.22;;;20.10;91.50;;;;;;4983502;28;20039;-73
2023/07/14 07:08:14;;;;;;;5.25;3.17;;;20.10;91.40;;;;;;4984262;28;20458;-72
2023/07/14 07:10:41;;;;;;;4.40;2.83;;;20.20;91.40;;;;;;4973669;28;20056;-72
2023/07/14 07:13:07;;;;;;;8.57;3.13;;;20.20;91.20;;;;;;4966472;28;20057;-71
2023/07/14 07:15:33;;;;;;;4.68;2.75;;;20.20;91.10;;;;;;4983963;28;20038;-72
2023/07/14 07:17:58;;;;;;;5.90;2.70;;;20.20;91.00;;;;;;4984506;28;20030;-72
2023/07/14 07:20:24;;;;;;;7.97;3.30;;;20.20;91.20;;;;;;4982553;28;20408;-72
2023/07/14 07:22:50;;;;;;;5.82;3.03;;;20.20;91.20;;;;;;4983840;28;20053;-72
2023/07/14 07:25:16;;;;;;;5.68;2.60;;;20.30;91.30;;;;;;4983311;28;20535;-72
2023/07/14 07:27:42;;;;;;;8.90;3.33;;;20.30;90.70;;;;;;4988646;28;20292;-72
2023/07/14 07:30:09;;;;;;;7.05;3.08;;;20.40;90.50;;;;;;4986535;28;20042;-72
2023/07/14 07:32:35;;;;;;;7.85;2.53;;;20.40;90.40;;;;;;4980160;28;20031;-71
2023/07/14 07:35:00;;;;;;;5.43;2.60;;;20.40;90.40;;;;;;4980567;28;20030;-72
2023/07/14 07:37:27;;;;;;;11.90;2.50;;;20.50;90.20;;;;;;4982847;28;20562;-72
2023/07/14 07:39:56;;;;;;;7.22;2.65;;;20.60;90.20;;;;;;4959936;28;20883;-72
2023/07/14 07:42:22;;;;;;;6.38;2.72;;;20.70;90.20;;;;;;4983231;28;20031;-72
2023/07/14 07:44:48;;;;;;;3.92;2.17;;;20.80;90.10;;;;;;4988030;28;20035;-72
2023/07/14 07:47:14;;;;;;;4.85;2.33;;;20.80;90.10;;;;;;4982718;28;20030;-72
2023/07/14 07:49:39;;;;;;;4.47;2.40;;;20.90;90.20;;;;;;4985672;28;20385;-72
2023/07/14 07:52:06;;;;;;;5.85;2.13;;;21.00;89.80;;;;;;4980115;28;20061;-72
2023/07/14 07:54:32;;;;;;;6.03;2.40;;;21.00;89.50;;;;;;4982352;28;20026;-72
2023/07/14 07:56:57;;;;;;;5.78;2.47;;;21.10;89.30;;;;;;4986262;28;20049;-72
2023/07/14 07:59:23;;;;;;;7.07;1.98;;;21.10;89.60;;;;;;4966057;28;20129;-72
2023/07/14 08:01:49;;;;;;;4.60;2.13;;;21.30;89.50;;;;;;4985605;28;20078;-72
2023/07/14 08:04:16;;;;;;;3.35;1.90;;;21.40;89.20;;;;;;4985347;28;20023;-71
2023/07/14 08:06:42;;;;;;;4.30;2.10;;;21.40;88.30;;;;;;4982751;28;20015;-73
2023/07/14 08:09:09;;;;;;;5.70;2.10;;;21.50;88.30;;;;;;4983416;28;20365;-73
2023/07/14 08:11:35;;;;;;;7.70;2.20;;;21.50;87.60;;;;;;4983103;28;20022;-73
2023/07/14 08:14:02;;;;;;;10.13;1.75;;;21.70;87.30;;;;;;4975536;28;20030;-73
2023/07/14 08:16:30;;;;;;;8.23;2.03;;;21.80;87.10;;;;;;4932496;28;20039;-73
2023/07/14 08:18:55;;;;;;;3.50;1.80;;;21.80;86.10;;;;;;4967613;28;20030;-73
2023/07/14 08:21:22;;;;;;;4.63;1.92;;;22.00;85.80;;;;;;4989299;28;20034;-73
2023/07/14 08:23:47;;;;;;;3.55;1.60;;;22.10;85.20;;;;;;4987807;28;20429;-73
2023/07/14 08:26:13;;;;;;;4.05;1.70;;;22.20;84.10;;;;;;4958852;28;20078;-73
2023/07/14 08:28:42;;;;;;;5.85;1.83;;;22.30;83.70;;;;;;4986871;28;20026;-73
2023/07/14 08:31:11;;;;;;;3.67;1.52;;;22.40;83.30;;;;;;4987637;28;20514;-73
2023/07/14 08:33:37;;;;;;;8.95;1.92;;;22.50;83.40;;;;;;4987323;28;20130;-72
2023/07/14 08:36:04;;;;;;;5.15;1.98;;;22.60;82.20;;;;;;4989800;28;20660;-72
2023/07/14 08:38:31;;;;;;;4.75;1.65;;;22.70;82.60;;;;;;4983941;28;20560;-72
2023/07/14 08:41:09;;;;;;;5.95;1.85;;;22.80;82.70;;;;;;4967284;28;20037;-72
2023/07/14 08:44:18;;;;;;;4.05;1.88;;;22.90;82.10;;;;;;4984044;28;20037;-72
2023/07/14 08:46:55;;;;;;;9.85;2.25;;;23.00;82.30;;;;;;4975724;28;20536;-72
2023/07/14 08:49:26;;;;;;;6.70;1.67;;;23.20;82.00;;;;;;4964968;28;20022;-72
2023/07/14 08:52:22;;;;;;;3.92;1.77;;;23.20;81.80;;;;;;4964224;28;20038;-72
2023/07/14 08:55:15;;;;;;;3.63;1.40;;;23.40;81.90;;;;;;4935106;28;20089;-72
2023/07/14 08:57:51;;;;;;;1.92;1.40;;;23.50;78.20;;;;;;4954451;28;20030;-72
2023/07/14 09:00:26;;;;;;;3.85;1.48;;;23.70;77.70;;;;;;4979448;28;20077;-73
2023/07/14 09:03:04;;;;;;;5.30;3.35;;;23.80;76.10;;;;;;4977525;28;20030;-73
2023/07/14 09:05:31;;;;;;;2.95;1.60;;;24.00;74.50;;;;;;4985764;28;20033;-70
2023/07/14 09:07:57;;;;;;;3.20;1.50;;;24.20;74.30;;;;;;4979864;28;20053;-70
2023/07/14 09:10:49;;;;;;;4.60;1.58;;;24.30;73.70;;;;;;4983762;28;20038;-71
2023/07/14 09:13:41;;;;;;;2.15;1.33;;;24.40;72.50;;;;;;4978572;28;20054;-74
2023/07/14 09:16:10;;;;;;;4.03;1.50;;;24.60;72.20;;;;;;4978025;28;20089;-72
2023/07/14 09:18:41;;;;;;;2.90;1.50;;;24.70;72.30;;;;;;4959831;28;20073;-72
2023/07/14 09:21:29;;;;;;;2.83;1.45;;;24.80;71.50;;;;;;4976938;28;20113;-73
2023/07/14 09:24:12;;;;;;;4.43;1.73;;;24.90;71.60;;;;;;4962822;28;20030;-71
2023/07/14 09:26:44;;;;;;;5.00;1.75;;;25.00;70.80;;;;;;4976860;28;20445;-73
2023/07/14 09:29:18;;;;;;;2.53;1.33;;;25.10;70.20;;;;;;4978531;28;20037;-73
2023/07/14 09:31:59;;;;;;;2.72;1.67;;;25.20;70.20;;;;;;4977518;28;20123;-73
2023/07/14 09:34:33;;;;;;;5.00;1.85;;;25.40;69.50;;;;;;4979066;28;20846;-73
2023/07/14 09:37:01;;;;;;;5.55;1.65;;;25.50;68.70;;;;;;4977171;28;20499;-73
2023/07/14 09:39:37;;;;;;;3.95;1.77;;;25.70;68.90;;;;;;4983636;28;20168;-72
2023/07/14 09:42:07;;;;;;;2.42;1.60;;;25.80;68.50;;;;;;4981749;28;20073;-73
2023/07/14 09:44:33;;;;;;;2.78;1.50;;;25.80;68.10;;;;;;4982848;28;20101;-73
2023/07/14 09:47:02;;;;;;;5.28;1.83;;;25.90;67.80;;;;;;4980133;28;20041;-73
2023/07/14 09:49:47;;;;;;;4.18;1.33;;;26.00;67.40;;;;;;4979672;28;20038;-73
2023/07/14 09:52:23;;;;;;;6.30;2.15;;;26.10;66.60;;;;;;4977765;28;20061;-72
2023/07/14 09:54:57;;;;;;;2.83;1.65;;;26.20;66.70;;;;;;4984069;28;20072;-73
2023/07/14 09:57:27;;;;;;;3.05;1.20;;;26.20;66.00;;;;;;4982218;28;20769;-72
2023/07/14 09:59:58;;;;;;;3.28;1.45;;;26.30;65.70;;;;;;4976332;28;20090;-72
2023/07/14 10:02:29;;;;;;;3.47;1.33;;;26.30;65.60;;;;;;4976929;28;20544;-72
2023/07/14 10:05:00;;;;;;;3.97;1.50;;;26.30;66.20;;;;;;4978625;28;20033;-72
2023/07/14 10:07:25;;;;;;;4.20;1.67;;;26.30;65.90;;;;;;4981009;28;20092;-72
2023/07/14 10:10:15;;;;;;;2.50;1.52;;;26.30;65.50;;;;;;4980782;28;20034;-72
2023/07/14 10:12:48;;;;;;;1.85;1.25;;;26.30;65.40;;;;;;4979661;28;20030;-72
2023/07/14 10:15:32;;;;;;;6.13;1.58;;;26.40;65.20;;;;;;4975789;28;20061;-71
2023/07/14 10:18:12;;;;;;;4.82;1.50;;;26.40;64.90;;;;;;4981926;28;20382;-71
2023/07/14 10:20:39;;;;;;;3.08;1.45;;;26.40;65.10;;;;;;4984275;28;20027;-71
2023/07/14 10:23:14;;;;;;;6.70;1.92;;;26.40;65.20;;;;;;4984706;28;20121;-71
2023/07/14 10:25:40;;;;;;;8.80;2.13;;;26.40;65.10;;;;;;4981655;28;20374;-72
2023/07/14 10:28:16;;;;;;;3.70;1.10;;;26.50;65.50;;;;;;4984217;28;20034;-71
2023/07/14 10:31:17;;;;;;;3.35;1.98;;;26.50;64.80;;;;;;4987171;28;20038;-71
2023/07/14 10:33:51;;;;;;;1.98;1.30;;;26.50;64.80;;;;;;4980499;28;20362;-71
2023/07/14 10:36:24;;;;;;;2.65;1.70;;;26.60;64.30;;;;;;4980185;28;20030;-71
2023/07/14 10:39:06;;;;;;;3.25;1.50;;;26.60;64.40;;;;;;4981262;28;20026;-71
2023/07/14 10:41:33;;;;;;;2.90;1.60;;;26.60;64.20;;;;;;4983978;28;20031;-71
2023/07/14 10:44:09;;;;;;;2.38;1.48;;;26.70;64.20;;;;;;4983860;28;20088;-71
2023/07/14 10:46:47;;;;;;;4.57;1.80;;;26.70;63.70;;;;;;4984239;28;20026;-71
2023/07/14 10:49:15;;;;;;;5.28;2.00;;;26.70;63.30;;;;;;4981447;28;20038;-71
2023/07/14 10:52:03;;;;;;;7.63;1.73;;;26.60;63.40;;;;;;4980867;28;20037;-72
2023/07/14 10:54:52;;;;;;;4.18;1.20;;;26.70;63.60;;;;;;4982935;28;20035;-71
2023/07/14 10:57:46;;;;;;;2.42;1.50;;;26.80;63.70;;;;;;4979400;28;20022;-71
2023/07/14 11:00:38;;;;;;;3.72;1.80;;;26.90;63.80;;;;;;4987686;28;20038;-71
2023/07/14 11:03:15;;;;;;;2.75;1.48;;;26.90;63.50;;;;;;4984855;28;20026;-71
2023/07/14 11:05:50;;;;;;;4.68;1.70;;;26.90;62.70;;;;;;4984930;28;20040;-71
2023/07/14 11:08:16;;;;;;;3.05;1.70;;;27.00;62.60;;;;;;4982216;28;20100;-71
2023/07/14 11:10:53;;;;;;;2.45;1.20;;;27.00;62.20;;;;;;4970982;28;20030;-71
2023/07/14 11:13:52;;;;;;;3.97;2.10;;;27.00;61.90;;;;;;4986346;28;20030;-71
2023/07/14 11:16:28;;;;;;;6.28;1.55;;;27.00;61.50;;;;;;4986106;28;20389;-71
2023/07/14 11:19:06;;;;;;;4.90;1.48;;;27.00;61.60;;;;;;4981844;28;20031;-71
2023/07/14 11:21:32;;;;;;;2.83;1.48;;;27.00;61.50;;;;;;4986666;28;20026;-71
2023/07/14 11:24:09;;;;;;;3.40;1.75;;;27.00;61.40;;;;;;4972522;28;20041;-71
2023/07/14 11:27:00;;;;;;;3.35;1.80;;;26.90;60.80;;;;;;4988282;28;20030;-71
2023/07/14 11:29:30;;;;;;;2.83;1.40;;;26.90;61.10;;;;;;4974409;28;20037;-71
2023/07/14 11:31:59;;;;;;;2.72;1.58;;;27.00;61.80;;;;;;4990502;28;20030;-71
2023/07/14 11:34:43;;;;;;;3.88;2.28;;;27.00;61.90;;;;;;4989659;28;20466;-71
2023/07/14 11:37:14;;;;;;;3.47;1.75;;;27.10;61.80;;;;;;4991514;28;20022;-70
2023/07/14 11:39:40;;;;;;;1.80;1.40;;;27.00;61.70;;;;;;4990792;28;20495;-71
2023/07/14 11:42:22;;;;;;;4.18;2.17;;;26.90;61.90;;;;;;4989440;28;20030;-71
2023/07/14 11:44:50;;;;;;;3.92;1.40;;;26.90;62.50;;;;;;4985655;28;20503;-71
2023/07/14 11:47:37;;;;;;;3.53;1.70;;;26.90;62.50;;;;;;4986449;28;20061;-71
2023/07/14 11:50:22;;;;;;;5.75;1.83;;;27.00;62.50;;;;;;4990288;28;20049;-72
2023/07/14 11:53:06;;;;;;;2.65;1.90;;;27.00;61.90;;;;;;4990877;28;20026;-71
2023/07/14 11:55:36;;;;;;;5.80;2.40;;;27.00;62.20;;;;;;4989667;28;20030;-71
2023/07/14 11:58:14;;;;;;;2.80;1.95;;;27.00;62.60;;;;;;4988515;28;20034;-71
2023/07/14 12:00:47;;;;;;;2.80;1.60;;;27.10;62.30;;;;;;4988506;28;20463;-71
2023/07/14 12:03:28;;;;;;;11.57;2.70;;;27.10;61.90;;;;;;4988139;28;20029;-71
2023/07/14 12:06:18;;;;;;;3.85;1.77;;;27.10;61.80;;;;;;4991355;28;20026;-72
2023/07/14 12:08:58;;;;;;;4.57;1.73;;;27.10;61.70;;;;;;4986218;28;20109;-71
2023/07/14 12:11:27;;;;;;;1.95;1.75;;;27.00;62.00;;;;;;4990845;28;20022;-72
2023/07/14 12:13:52;;;;;;;3.17;1.85;;;26.90;61.50;;;;;;4989416;28;20572;-71
2023/07/14 12:16:24;;;;;;;6.22;2.05;;;26.90;61.70;;;;;;4985921;28;20125;-72
2023/07/14 12:19:20;;;;;;;3.72;1.30;;;26.90;62.30;;;;;;4987327;28;20432;-72
2023/07/14 12:22:02;;;;;;;2.85;1.52;;;27.10;62.30;;;;;;4988175;28;20077;-72
2023/07/14 12:24:31;;;;;;;4.75;1.90;;;27.10;61.20;;;;;;4986653;28;20032;-72
2023/07/14 12:27:17;;;;;;;2.13;1.70;;;27.10;60.90;;;;;;4987354;28;20535;-72
2023/07/14 12:29:43;;;;;;;3.20;1.67;;;27.10;61.00;;;;;;4971771;28;20041;-72
2023/07/14 12:32:19;;;;;;;3.20;1.50;;;27.00;61.20;;;;;;4987400;28;20493;-71
2023/07/14 12:34:46;;;;;;;1.98;1.50;;;27.10;62.00;;;;;;4983037;28;20440;-72
2023/07/14 12:37:21;;;;;;;3.63;1.88;;;27.10;61.50;;;;;;4990070;28;20035;-72
2023/07/14 12:39:50;;;;;;;3.45;1.63;;;27.10;61.50;;;;;;4985909;28;20349;-72
2023/07/14 12:42:16;;;;;;;4.15;1.83;;;27.20;61.30;;;;;;4988845;28;20034;-71
2023/07/14 12:44:42;;;;;;;1.88;1.23;;;27.20;61.50;;;;;;4988948;28;20485;-72
2023/07/14 12:47:14;;;;;;;3.03;1.70;;;27.20;61.80;;;;;;4988441;28;20073;-72
2023/07/14 12:49:42;;;;;;;2.33;1.50;;;27.30;61.40;;;;;;4989272;28;20034;-72
2023/07/14 12:52:19;;;;;;;2.55;1.52;;;27.30;61.40;;;;;;4988337;28;20060;-72
2023/07/14 12:54:47;;;;;;;3.97;1.95;;;27.20;61.80;;;;;;4984871;28;20034;-72
2023/07/14 12:57:15;;;;;;;4.60;1.73;;;27.10;60.50;;;;;;4986936;28;20042;-71
2023/07/14 12:59:45;;;;;;;2.05;1.48;;;27.10;61.40;;;;;;4987058;28;20025;-73
2023/07/14 13:02:12;;;;;;;2.88;1.67;;;27.10;61.40;;;;;;4988074;28;20117;-73
2023/07/14 13:04:39;;;;;;;3.58;1.63;;;27.00;61.30;;;;;;4970589;28;20022;-73
2023/07/14 13:07:11;;;;;;;3.67;1.85;;;27.00;61.40;;;;;;4991561;28;20019;-74